createdAt,value
2018-12-02T00:00:49.115Z,88.07
2018-12-02T00:01:49.092Z,87.97
2018-12-02T00:02:49.082Z,87.87
2018-12-02T00:03:49.079Z,87.97
2018-12-02T00:04:49.078Z,87.87
2018-12-02T00:05:49.050Z,87.97
2018-12-02T00:06:49.058Z,88.07
2018-12-02T00:07:49.029Z,88.07
2018-12-02T00:08:49.018Z,87.87
2018-12-02T00:09:49.022Z,87.87
2018-12-02T00:10:48.997Z,88.48
2018-12-02T00:11:48.987Z,89.00
2018-12-02T00:12:48.978Z,87.82
2018-12-02T00:13:48.970Z,88.07
2018-12-02T00:14:48.965Z,87.72
2018-12-02T00:15:48.937Z,87.93
2018-12-02T00:16:48.937Z,87.66
2018-12-02T00:17:48.949Z,87.62
2018-12-02T00:18:48.897Z,87.35
2018-12-02T00:19:48.971Z,87.45
2018-12-02T00:20:48.896Z,87.45
2018-12-02T00:21:48.884Z,87.24
2018-12-02T00:22:48.872Z,87.76
2018-12-02T00:23:48.854Z,87.66
2018-12-02T00:24:48.838Z,87.87
2018-12-02T00:25:48.876Z,87.51
2018-12-02T00:26:48.822Z,87.51
2018-12-02T00:27:48.810Z,88.13
2018-12-02T00:28:48.804Z,87.66
2018-12-02T00:29:48.808Z,87.72
2018-12-02T00:30:48.799Z,87.76
2018-12-02T00:31:48.762Z,87.55
2018-12-02T00:32:48.774Z,87.55
2018-12-02T00:33:48.748Z,87.55
2018-12-02T00:34:48.734Z,87.45
2018-12-02T00:35:48.735Z,87.24
2018-12-02T00:36:48.758Z,88.07
2018-12-02T00:37:48.701Z,87.66
2018-12-02T00:38:48.700Z,87.45
2018-12-02T00:39:48.678Z,87.35
2018-12-02T00:40:48.696Z,87.45
2018-12-02T00:41:48.661Z,87.24
2018-12-02T00:42:48.662Z,87.55
2018-12-02T00:43:48.639Z,87.66
2018-12-02T00:44:48.634Z,87.87
2018-12-02T00:45:48.642Z,87.45
2018-12-02T00:46:48.603Z,87.55
2018-12-02T00:47:48.590Z,87.97
2018-12-02T00:48:48.577Z,88.07
2018-12-02T00:49:48.569Z,87.97
2018-12-02T00:50:48.581Z,87.87
2018-12-02T00:51:48.545Z,87.87
2018-12-02T00:52:48.543Z,87.87
2018-12-02T00:53:48.521Z,87.87
2018-12-02T00:54:48.518Z,87.97
2018-12-02T00:55:48.511Z,88.07
2018-12-02T00:56:48.515Z,87.97
2018-12-02T00:57:48.507Z,87.97
2018-12-02T00:58:48.467Z,87.87
2018-12-02T00:59:48.472Z,87.87
2018-12-02T01:00:48.466Z,87.97
2018-12-02T01:01:48.445Z,87.66
2018-12-02T01:02:48.429Z,87.55
2018-12-02T01:03:48.421Z,87.45
2018-12-02T01:04:48.398Z,87.45
2018-12-02T01:05:48.427Z,87.66
2018-12-02T01:06:53.411Z,87.66
2018-12-02T01:07:49.359Z,87.66
2018-12-02T01:08:48.359Z,87.76
2018-12-02T01:09:48.355Z,87.66
2018-12-02T01:10:48.353Z,87.66
2018-12-02T01:11:48.345Z,87.97
2018-12-02T01:12:48.316Z,87.55
2018-12-02T01:13:48.344Z,87.97
2018-12-02T01:14:48.292Z,87.55
2018-12-02T01:15:48.286Z,87.87
2018-12-02T01:16:48.294Z,87.45
2018-12-02T01:17:48.268Z,87.55
2018-12-02T01:18:48.261Z,87.41
2018-12-02T01:19:48.240Z,87.41
2018-12-02T01:20:48.231Z,87.35
2018-12-02T01:21:48.253Z,87.30
2018-12-02T01:22:48.215Z,87.24
2018-12-02T01:23:48.198Z,87.04
2018-12-02T01:24:48.200Z,87.04
2018-12-02T01:25:48.173Z,86.58
2018-12-02T01:26:48.973Z,87.41
2018-12-02T01:27:48.148Z,87.35
2018-12-02T01:28:48.160Z,87.14
2018-12-02T01:29:48.141Z,86.93
2018-12-02T01:30:48.124Z,87.45
2018-12-02T01:31:48.128Z,86.93
2018-12-02T01:32:48.112Z,87.04
2018-12-02T01:33:48.093Z,86.89
2018-12-02T01:34:48.081Z,87.35
2018-12-02T01:35:48.070Z,87.45
2018-12-02T01:36:48.087Z,86.83
2018-12-02T01:37:48.043Z,87.14
2018-12-02T01:38:48.032Z,86.83
2018-12-02T01:39:48.017Z,87.04
2018-12-02T01:40:48.008Z,87.35
2018-12-02T01:41:48.015Z,87.24
2018-12-02T01:42:47.987Z,87.45
2018-12-02T01:43:47.988Z,86.72
2018-12-02T01:44:47.976Z,87.45
2018-12-02T01:45:47.950Z,87.35
2018-12-02T01:46:47.992Z,86.62
2018-12-02T01:47:47.928Z,87.04
2018-12-02T01:48:47.929Z,87.14
2018-12-02T01:49:47.911Z,86.83
2018-12-02T01:50:47.902Z,87.04
2018-12-02T01:51:47.905Z,86.93
2018-12-02T01:52:47.887Z,87.04
2018-12-02T01:53:47.861Z,86.93
2018-12-02T01:54:47.863Z,86.93
2018-12-02T01:55:47.855Z,87.14
2018-12-02T01:56:47.845Z,87.04
2018-12-02T01:57:47.834Z,86.93
2018-12-02T01:58:47.825Z,86.93
2018-12-02T01:59:47.797Z,87.04
2018-12-02T02:00:47.787Z,87.35
2018-12-02T02:01:47.771Z,87.24
2018-12-02T02:02:47.791Z,87.04
2018-12-02T02:03:47.761Z,86.52
2018-12-02T02:04:47.757Z,86.52
2018-12-02T02:05:47.744Z,87.14
2018-12-02T02:06:47.721Z,86.83
2018-12-02T02:07:47.731Z,86.62
2018-12-02T02:08:47.700Z,86.83
2018-12-02T02:09:47.690Z,86.52
2018-12-02T02:10:47.693Z,86.52
2018-12-02T02:11:47.681Z,86.52
2018-12-02T02:12:47.669Z,86.72
2018-12-02T02:13:47.641Z,86.83
2018-12-02T02:14:47.634Z,86.52
2018-12-02T02:15:47.668Z,86.41
2018-12-02T02:16:47.610Z,87.14
2018-12-02T02:17:47.617Z,86.55
2018-12-02T02:18:47.599Z,86.52
2018-12-02T02:19:47.578Z,86.31
2018-12-02T02:20:47.576Z,86.62
2018-12-02T02:21:47.565Z,86.31
2018-12-02T02:22:47.561Z,86.31
2018-12-02T02:23:47.531Z,86.21
2018-12-02T02:24:47.541Z,86.41
2018-12-02T02:25:47.518Z,86.31
2018-12-02T02:26:47.496Z,86.10
2018-12-02T02:27:47.516Z,86.45
2018-12-02T02:28:47.490Z,86.31
2018-12-02T02:29:47.475Z,85.89
2018-12-02T02:30:47.470Z,86.21
2018-12-02T02:31:47.456Z,86.25
2018-12-02T02:32:47.454Z,86.04
2018-12-02T02:33:47.425Z,86.52
2018-12-02T02:34:47.414Z,86.55
2018-12-02T02:35:47.417Z,86.52
2018-12-02T02:36:47.393Z,86.41
2018-12-02T02:37:47.415Z,86.45
2018-12-02T02:38:47.372Z,86.41
2018-12-02T02:39:47.366Z,86.10
2018-12-02T02:40:47.353Z,86.41
2018-12-02T02:41:47.352Z,86.15
2018-12-02T02:42:47.353Z,86.31
2018-12-02T02:43:47.318Z,86.41
2018-12-02T02:44:47.306Z,86.45
2018-12-02T02:45:47.302Z,86.41
2018-12-02T02:46:47.283Z,86.52
2018-12-02T02:47:47.282Z,86.55
2018-12-02T02:48:47.272Z,85.69
2018-12-02T02:49:47.248Z,86.31
2018-12-02T02:50:47.237Z,86.31
2018-12-02T02:51:47.232Z,86.41
2018-12-02T02:52:47.240Z,86.10
2018-12-02T02:53:47.217Z,86.21
2018-12-02T02:54:47.220Z,86.87
2018-12-02T02:55:47.179Z,86.41
2018-12-02T02:56:47.177Z,86.72
2018-12-02T02:57:47.215Z,87.04
2018-12-02T02:58:47.155Z,86.83
2018-12-02T02:59:47.144Z,87.04
2018-12-02T03:00:47.134Z,86.93
2018-12-02T03:01:47.121Z,87.04
2018-12-02T03:02:47.136Z,86.83
2018-12-02T03:03:47.109Z,86.83
2018-12-02T03:04:47.114Z,86.62
2018-12-02T03:05:47.093Z,86.72
2018-12-02T03:06:47.063Z,86.21
2018-12-02T03:07:47.101Z,86.52
2018-12-02T03:08:47.050Z,86.31
2018-12-02T03:09:47.036Z,86.21
2018-12-02T03:10:47.027Z,86.31
2018-12-02T03:11:47.024Z,86.21
2018-12-02T03:12:47.017Z,86.41
2018-12-02T03:13:47.010Z,86.21
2018-12-02T03:14:46.980Z,86.10
2018-12-02T03:15:46.991Z,86.10
2018-12-02T03:16:46.954Z,86.10
2018-12-02T03:17:46.967Z,86.00
2018-12-02T03:18:46.941Z,86.31
2018-12-02T03:19:46.918Z,86.31
2018-12-02T03:20:46.919Z,86.41
2018-12-02T03:21:46.904Z,86.41
2018-12-02T03:22:46.902Z,86.41
2018-12-02T03:23:46.891Z,86.41
2018-12-02T03:24:46.880Z,86.21
2018-12-02T03:25:46.862Z,86.21
2018-12-02T03:26:46.857Z,86.31
2018-12-02T03:27:46.864Z,86.21
2018-12-02T03:28:46.842Z,86.52
2018-12-02T03:29:46.813Z,86.21
2018-12-02T03:30:46.805Z,86.21
2018-12-02T03:31:46.814Z,86.21
2018-12-02T03:32:46.789Z,86.21
2018-12-02T03:33:46.781Z,86.31
2018-12-02T03:34:46.754Z,86.31
2018-12-02T03:35:46.748Z,86.52
2018-12-02T03:36:46.760Z,86.31
2018-12-02T03:37:46.726Z,86.41
2018-12-02T03:38:46.730Z,86.52
2018-12-02T03:39:46.700Z,86.52
2018-12-02T03:40:46.695Z,86.41
2018-12-02T03:41:46.679Z,86.52
2018-12-02T03:42:46.666Z,86.52
2018-12-02T03:43:46.677Z,86.31
2018-12-02T03:44:46.650Z,86.72
2018-12-02T03:45:46.649Z,86.62
2018-12-02T03:46:46.621Z,85.89
2018-12-02T03:47:46.615Z,86.52
2018-12-02T03:48:46.630Z,86.83
2018-12-02T03:49:46.595Z,86.10
2018-12-02T03:50:46.588Z,86.07
2018-12-02T03:51:46.574Z,86.47
2018-12-02T03:52:46.564Z,86.52
2018-12-02T03:53:46.558Z,86.83
2018-12-02T03:54:46.539Z,86.41
2018-12-02T03:55:46.526Z,86.47
2018-12-02T03:56:46.517Z,86.41
2018-12-02T03:57:46.504Z,86.58
2018-12-02T03:58:46.508Z,86.10
2018-12-02T03:59:46.481Z,86.52
2018-12-02T04:00:46.474Z,86.79
2018-12-02T04:01:46.464Z,86.37
2018-12-02T04:02:46.473Z,86.37
2018-12-02T04:03:46.477Z,86.72
2018-12-02T04:04:46.429Z,86.41
2018-12-02T04:05:46.420Z,86.52
2018-12-02T04:06:46.410Z,86.58
2018-12-02T04:07:46.405Z,86.83
2018-12-02T04:08:46.373Z,86.79
2018-12-02T04:09:46.384Z,86.37
2018-12-02T04:10:46.355Z,86.17
2018-12-02T04:11:46.358Z,86.37
2018-12-02T04:12:46.339Z,86.37
2018-12-02T04:13:46.320Z,86.58
2018-12-02T04:14:46.327Z,86.58
2018-12-02T04:15:46.308Z,86.62
2018-12-02T04:16:46.292Z,86.47
2018-12-02T04:17:46.289Z,86.41
2018-12-02T04:18:46.268Z,86.27
2018-12-02T04:19:46.287Z,86.07
2018-12-02T04:20:46.253Z,86.37
2018-12-02T04:21:46.229Z,86.37
2018-12-02T04:22:46.237Z,86.79
2018-12-02T04:23:46.214Z,86.58
2018-12-02T04:24:46.225Z,86.27
2018-12-02T04:25:46.187Z,86.27
2018-12-02T04:26:46.188Z,86.17
2018-12-02T04:27:46.186Z,86.27
2018-12-02T04:28:46.163Z,86.47
2018-12-02T04:29:46.168Z,86.27
2018-12-02T04:30:46.148Z,86.37
2018-12-02T04:31:46.136Z,86.37
2018-12-02T04:32:46.115Z,86.27
2018-12-02T04:33:46.104Z,85.92
2018-12-02T04:34:46.123Z,86.27
2018-12-02T04:35:46.078Z,85.71
2018-12-02T04:36:46.075Z,86.37
2018-12-02T04:37:46.057Z,85.86
2018-12-02T04:38:46.058Z,85.75
2018-12-02T04:39:46.054Z,86.13
2018-12-02T04:40:46.031Z,86.13
2018-12-02T04:41:46.025Z,85.82
2018-12-02T04:42:46.002Z,86.02
2018-12-02T04:43:45.995Z,85.82
2018-12-02T04:44:45.994Z,86.13
2018-12-02T04:45:45.962Z,85.50
2018-12-02T04:46:45.956Z,85.82
2018-12-02T04:47:45.945Z,85.40
2018-12-02T04:48:45.947Z,86.02
2018-12-02T04:49:45.943Z,85.13
2018-12-02T04:50:45.916Z,85.96
2018-12-02T04:51:45.902Z,85.19
2018-12-02T04:52:45.896Z,85.40
2018-12-02T04:53:45.895Z,85.65
2018-12-02T04:54:45.895Z,85.61
2018-12-02T04:55:45.863Z,85.40
2018-12-02T04:56:45.847Z,85.40
2018-12-02T04:57:45.839Z,85.86
2018-12-02T04:58:45.817Z,85.40
2018-12-02T04:59:45.815Z,85.50
2018-12-02T05:00:45.819Z,85.09
2018-12-02T05:01:45.797Z,85.40
2018-12-02T05:02:45.785Z,85.09
2018-12-02T05:03:45.776Z,84.78
2018-12-02T05:04:45.803Z,84.88
2018-12-02T05:05:45.766Z,84.88
2018-12-02T05:06:45.742Z,85.09
2018-12-02T05:07:45.735Z,85.09
2018-12-02T05:08:45.720Z,85.09
2018-12-02T05:09:45.713Z,84.99
2018-12-02T05:10:45.707Z,84.99
2018-12-02T05:11:45.685Z,85.30
2018-12-02T05:12:45.675Z,84.72
2018-12-02T05:13:45.662Z,84.68
2018-12-02T05:14:45.663Z,84.99
2018-12-02T05:15:45.649Z,84.61
2018-12-02T05:16:45.637Z,84.51
2018-12-02T05:17:45.621Z,84.51
2018-12-02T05:18:45.612Z,84.41
2018-12-02T05:19:45.599Z,84.72
2018-12-02T05:20:45.606Z,84.72
2018-12-02T05:21:45.585Z,84.61
2018-12-02T05:22:45.559Z,84.41
2018-12-02T05:23:45.563Z,84.51
2018-12-02T05:24:45.559Z,84.61
2018-12-02T05:25:45.544Z,84.47
2018-12-02T05:26:45.525Z,84.51
2018-12-02T05:27:45.509Z,84.51
2018-12-02T05:28:45.550Z,84.51
2018-12-02T05:29:45.502Z,84.51
2018-12-02T05:30:45.495Z,84.47
2018-12-02T05:31:45.471Z,84.72
2018-12-02T05:32:45.454Z,84.51
2018-12-02T05:33:45.447Z,84.61
2018-12-02T05:34:45.435Z,84.51
2018-12-02T05:35:45.438Z,84.58
2018-12-02T05:36:45.414Z,84.58
2018-12-02T05:37:45.401Z,84.78
2018-12-02T05:38:45.386Z,84.58
2018-12-02T05:39:45.388Z,84.92
2018-12-02T05:40:45.382Z,84.47
2018-12-02T05:41:45.357Z,84.27
2018-12-02T05:42:45.345Z,83.75
2018-12-02T05:43:45.341Z,83.95
2018-12-02T05:44:45.320Z,83.95
2018-12-02T05:45:45.324Z,83.64
2018-12-02T05:46:45.304Z,84.06
2018-12-02T05:47:45.281Z,83.64
2018-12-02T05:48:45.276Z,83.54
2018-12-02T05:49:45.265Z,83.33
2018-12-02T05:50:45.276Z,83.64
2018-12-02T05:51:45.246Z,83.64
2018-12-02T05:52:45.234Z,83.95
2018-12-02T05:53:45.224Z,83.95
2018-12-02T05:54:45.218Z,83.33
2018-12-02T05:55:45.209Z,83.33
2018-12-02T05:56:45.191Z,83.44
2018-12-02T05:57:45.178Z,83.54
2018-12-02T05:58:45.165Z,83.33
2018-12-02T05:59:45.165Z,83.33
2018-12-02T06:00:45.161Z,83.64
2018-12-02T06:01:45.135Z,83.64
2018-12-02T06:02:45.117Z,83.54
2018-12-02T06:03:45.120Z,83.23
2018-12-02T06:04:45.106Z,83.33
2018-12-02T06:05:45.105Z,83.64
2018-12-02T06:06:45.077Z,83.44
2018-12-02T06:07:45.072Z,83.54
2018-12-02T06:08:45.056Z,83.12
2018-12-02T06:09:45.042Z,83.44
2018-12-02T06:10:45.053Z,83.33
2018-12-02T06:11:45.021Z,83.44
2018-12-02T06:12:45.006Z,83.54
2018-12-02T06:13:45.006Z,83.02
2018-12-02T06:14:44.997Z,83.02
2018-12-02T06:15:44.972Z,83.12
2018-12-02T06:16:44.983Z,83.02
2018-12-02T06:17:44.968Z,83.44
2018-12-02T06:18:44.949Z,83.54
2018-12-02T06:19:44.926Z,83.12
2018-12-02T06:20:44.924Z,83.54
2018-12-02T06:21:44.918Z,83.44
2018-12-02T06:22:44.897Z,83.23
2018-12-02T06:23:44.877Z,83.02
2018-12-02T06:24:44.879Z,83.12
2018-12-02T06:25:46.610Z,83.23
2018-12-02T06:26:44.876Z,83.12
2018-12-02T06:27:44.853Z,83.12
2018-12-02T06:28:44.833Z,83.02
2018-12-02T06:29:44.831Z,83.12
2018-12-02T06:30:44.809Z,83.02
2018-12-02T06:31:44.815Z,82.88
2018-12-02T06:32:44.786Z,82.78
2018-12-02T06:33:44.780Z,82.26
2018-12-02T06:34:44.759Z,82.71
2018-12-02T06:35:44.766Z,82.36
2018-12-02T06:36:44.759Z,82.46
2018-12-02T06:37:44.734Z,82.57
2018-12-02T06:38:44.725Z,82.78
2018-12-02T06:39:44.727Z,82.78
2018-12-02T06:40:44.699Z,82.36
2018-12-02T06:41:44.707Z,82.36
2018-12-02T06:42:44.687Z,81.95
2018-12-02T06:43:44.679Z,82.36
2018-12-02T06:44:44.647Z,82.36
2018-12-02T06:45:44.643Z,82.78
2018-12-02T06:46:44.644Z,82.26
2018-12-02T06:47:44.622Z,82.46
2018-12-02T06:48:44.614Z,82.46
2018-12-02T06:49:44.595Z,82.36
2018-12-02T06:50:44.593Z,82.67
2018-12-02T06:51:44.586Z,82.46
2018-12-02T06:52:44.564Z,82.88
2018-12-02T06:53:44.561Z,82.46
2018-12-02T06:54:44.544Z,81.95
2018-12-02T06:55:44.527Z,82.26
2018-12-02T06:56:44.546Z,81.64
2018-12-02T06:57:44.512Z,81.54
2018-12-02T06:58:44.502Z,82.15
2018-12-02T06:59:44.490Z,81.81
2018-12-02T07:00:44.471Z,81.74
2018-12-02T07:01:44.464Z,81.64
2018-12-02T07:02:44.468Z,81.84
2018-12-02T07:03:44.456Z,82.15
2018-12-02T07:04:44.447Z,81.91
2018-12-02T07:05:44.442Z,82.05
2018-12-02T07:06:44.406Z,81.91
2018-12-02T07:07:44.414Z,81.84
2018-12-02T07:08:44.388Z,81.54
2018-12-02T07:09:44.382Z,81.54
2018-12-02T07:10:44.375Z,81.54
2018-12-02T07:11:44.343Z,81.39
2018-12-02T07:12:44.362Z,82.05
2018-12-02T07:13:44.330Z,81.74
2018-12-02T07:14:44.352Z,82.05
2018-12-02T07:15:44.310Z,81.54
2018-12-02T07:16:44.306Z,81.39
2018-12-02T07:17:44.304Z,81.64
2018-12-02T07:18:44.275Z,81.54
2018-12-02T07:19:44.262Z,81.64
2018-12-02T07:20:44.263Z,81.64
2018-12-02T07:21:44.258Z,82.05
2018-12-02T07:22:44.253Z,81.12
2018-12-02T07:23:44.224Z,81.60
2018-12-02T07:24:44.199Z,81.60
2018-12-02T07:25:44.188Z,81.39
2018-12-02T07:26:44.178Z,80.88
2018-12-02T07:27:44.209Z,81.02
2018-12-02T07:28:44.178Z,81.02
2018-12-02T07:29:44.149Z,81.19
2018-12-02T07:30:44.140Z,81.19
2018-12-02T07:31:44.156Z,81.09
2018-12-02T07:32:44.128Z,81.19
2018-12-02T07:33:44.102Z,80.88
2018-12-02T07:34:44.119Z,80.98
2018-12-02T07:35:44.076Z,81.39
2018-12-02T07:36:44.072Z,80.88
2018-12-02T07:37:44.086Z,81.49
2018-12-02T07:38:44.054Z,80.98
2018-12-02T07:39:44.078Z,81.54
2018-12-02T07:40:44.036Z,80.67
2018-12-02T07:41:44.016Z,80.77
2018-12-02T07:42:44.046Z,80.98
2018-12-02T07:43:44.011Z,81.02
2018-12-02T07:44:44.015Z,81.12
2018-12-02T07:45:43.964Z,80.77
2018-12-02T07:46:43.960Z,81.09
2018-12-02T07:47:43.954Z,80.81
2018-12-02T07:48:43.965Z,80.88
2018-12-02T07:49:43.931Z,80.91
2018-12-02T07:50:43.923Z,81.09
2018-12-02T07:51:43.917Z,80.81
2018-12-02T07:52:43.894Z,80.81
2018-12-02T07:53:43.919Z,80.81
2018-12-02T07:54:43.878Z,80.77
2018-12-02T07:55:43.882Z,80.67
2018-12-02T07:56:43.855Z,80.71
2018-12-02T07:57:43.838Z,80.98
2018-12-02T07:58:43.839Z,80.67
2018-12-02T07:59:43.815Z,80.98
2018-12-02T08:00:43.816Z,80.60
2018-12-02T08:01:43.797Z,81.02
2018-12-02T08:02:43.783Z,80.88
2018-12-02T08:03:43.801Z,80.67
2018-12-02T08:04:43.759Z,80.57
2018-12-02T08:05:43.762Z,80.46
2018-12-02T08:06:43.765Z,80.40
2018-12-02T08:07:43.742Z,80.08
2018-12-02T08:08:43.742Z,80.50
2018-12-02T08:09:43.707Z,80.67
2018-12-02T08:10:43.695Z,80.29
2018-12-02T08:11:43.683Z,80.26
2018-12-02T08:12:43.672Z,80.26
2018-12-02T08:13:43.683Z,80.05
2018-12-02T08:14:43.647Z,80.15
2018-12-02T08:15:43.638Z,79.94
2018-12-02T08:16:43.632Z,79.74
2018-12-02T08:17:43.626Z,79.94
2018-12-02T08:18:43.620Z,79.84
2018-12-02T08:19:43.589Z,79.74
2018-12-02T08:20:43.578Z,80.15
2018-12-02T08:21:43.581Z,79.94
2018-12-02T08:22:43.564Z,79.74
2018-12-02T08:23:43.574Z,79.94
2018-12-02T08:24:43.536Z,79.74
2018-12-02T08:25:43.536Z,79.94
2018-12-02T08:26:43.536Z,80.15
2018-12-02T08:27:43.511Z,79.94
2018-12-02T08:28:43.522Z,79.53
2018-12-02T08:29:43.484Z,79.84
2018-12-02T08:30:43.478Z,79.63
2018-12-02T08:31:43.452Z,79.63
2018-12-02T08:32:43.463Z,79.74
2018-12-02T08:33:43.435Z,79.29
2018-12-02T08:34:43.435Z,79.49
2018-12-02T08:35:43.411Z,79.39
2018-12-02T08:36:43.401Z,79.39
2018-12-02T08:37:43.387Z,79.19
2018-12-02T08:38:43.376Z,79.19
2018-12-02T08:39:43.389Z,79.39
2018-12-02T08:40:43.351Z,79.29
2018-12-02T08:41:43.341Z,79.08
2018-12-02T08:42:43.335Z,79.08
2018-12-02T08:43:43.325Z,78.77
2018-12-02T08:44:43.335Z,78.98
2018-12-02T08:45:43.298Z,78.98
2018-12-02T08:46:43.289Z,78.98
2018-12-02T08:47:43.282Z,78.88
2018-12-02T08:48:43.277Z,78.98
2018-12-02T08:49:43.283Z,79.39
2018-12-02T08:50:43.244Z,78.77
2018-12-02T08:51:43.248Z,78.88
2018-12-02T08:52:43.237Z,78.88
2018-12-02T08:53:43.207Z,78.98
2018-12-02T08:54:43.229Z,78.88
2018-12-02T08:55:43.196Z,79.08
2018-12-02T08:56:43.169Z,79.05
2018-12-02T08:57:43.169Z,78.63
2018-12-02T08:58:43.152Z,78.46
2018-12-02T08:59:43.177Z,79.08
2018-12-02T09:00:43.133Z,78.67
2018-12-02T09:01:43.135Z,78.67
2018-12-02T09:02:43.114Z,78.74
2018-12-02T09:03:43.110Z,78.46
2018-12-02T09:04:43.101Z,78.67
2018-12-02T09:05:43.078Z,78.11
2018-12-02T09:06:43.063Z,78.22
2018-12-02T09:07:43.060Z,78.56
2018-12-02T09:08:43.048Z,78.56
2018-12-02T09:09:43.054Z,78.77
2018-12-02T09:10:43.029Z,78.77
2018-12-02T09:11:43.010Z,78.63
2018-12-02T09:12:43.002Z,78.53
2018-12-02T09:13:42.990Z,78.63
2018-12-02T09:14:42.993Z,78.53
2018-12-02T09:15:42.958Z,78.53
2018-12-02T09:16:42.968Z,78.32
2018-12-02T09:17:42.947Z,78.11
2018-12-02T09:18:42.926Z,78.53
2018-12-02T09:19:42.928Z,78.11
2018-12-02T09:20:42.958Z,78.22
2018-12-02T09:21:42.888Z,78.11
2018-12-02T09:22:42.886Z,77.81
2018-12-02T09:23:47.389Z,77.91
2018-12-02T09:24:42.895Z,77.98
2018-12-02T09:25:42.862Z,77.87
2018-12-02T09:26:42.842Z,77.70
2018-12-02T09:27:42.834Z,77.70
2018-12-02T09:28:42.817Z,77.77
2018-12-02T09:29:42.825Z,77.87
2018-12-02T09:30:42.803Z,77.70
2018-12-02T09:31:42.784Z,77.81
2018-12-02T09:32:42.774Z,77.91
2018-12-02T09:33:42.773Z,77.67
2018-12-02T09:34:42.755Z,77.56
2018-12-02T09:35:42.766Z,77.67
2018-12-02T09:36:42.739Z,77.81
2018-12-02T09:37:42.720Z,77.50
2018-12-02T09:38:42.708Z,77.67
2018-12-02T09:39:42.704Z,77.87
2018-12-02T09:40:42.697Z,77.98
2018-12-02T09:41:42.677Z,78.08
2018-12-02T09:42:42.660Z,78.01
2018-12-02T09:43:42.658Z,77.87
2018-12-02T09:44:42.632Z,77.98
2018-12-02T09:45:42.654Z,77.46
2018-12-02T09:46:42.618Z,77.87
2018-12-02T09:47:42.596Z,77.56
2018-12-02T09:48:42.601Z,77.87
2018-12-02T09:49:42.626Z,77.77
2018-12-02T09:50:42.582Z,77.98
2018-12-02T09:51:42.563Z,78.01
2018-12-02T09:52:42.556Z,77.87
2018-12-02T09:53:42.541Z,78.08
2018-12-02T09:54:42.534Z,77.98
2018-12-02T09:55:42.540Z,78.08
2018-12-02T09:56:42.515Z,77.98
2018-12-02T09:57:42.490Z,77.98
2018-12-02T09:58:42.489Z,78.11
2018-12-02T09:59:42.476Z,78.08
2018-12-02T10:00:42.477Z,78.08
2018-12-02T10:01:42.446Z,78.28
2018-12-02T10:02:42.444Z,78.08
2018-12-02T10:03:42.433Z,78.18
2018-12-02T10:04:42.418Z,78.08
2018-12-02T10:05:42.431Z,78.39
2018-12-02T10:06:42.400Z,78.28
2018-12-02T10:07:42.381Z,78.18
2018-12-02T10:08:42.386Z,77.94
2018-12-02T10:09:42.366Z,78.05
2018-12-02T10:10:42.374Z,78.14
2018-12-02T10:11:42.344Z,78.05
2018-12-02T10:12:42.323Z,78.14
2018-12-02T10:13:42.319Z,78.05
2018-12-02T10:14:42.310Z,78.14
2018-12-02T10:15:42.308Z,78.05
2018-12-02T10:16:42.294Z,78.25
2018-12-02T10:17:42.271Z,78.05
2018-12-02T10:18:42.266Z,78.14
2018-12-02T10:19:42.244Z,77.94
2018-12-02T10:20:42.292Z,78.14
2018-12-02T10:21:42.235Z,78.14
2018-12-02T10:22:42.209Z,77.91
2018-12-02T10:23:42.213Z,78.05
2018-12-02T10:24:42.186Z,78.01
2018-12-02T10:25:42.208Z,78.11
2018-12-02T10:26:42.189Z,78.11
2018-12-02T10:27:42.174Z,78.01
2018-12-02T10:28:42.152Z,78.31
2018-12-02T10:29:42.130Z,78.11
2018-12-02T10:30:42.175Z,78.11
2018-12-02T10:31:42.117Z,78.01
2018-12-02T10:32:42.113Z,78.01
2018-12-02T10:33:42.112Z,78.42
2018-12-02T10:34:42.102Z,78.31
2018-12-02T10:35:42.092Z,78.42
2018-12-02T10:36:42.052Z,78.52
2018-12-02T10:37:42.054Z,78.42
2018-12-02T10:38:42.048Z,78.42
2018-12-02T10:39:42.033Z,78.31
2018-12-02T10:40:42.025Z,78.31
2018-12-02T10:41:42.011Z,78.08
2018-12-02T10:42:41.989Z,78.21
2018-12-02T10:43:41.982Z,78.38
2018-12-02T10:44:41.981Z,78.18
2018-12-02T10:45:41.970Z,78.28
2018-12-02T10:46:44.080Z,78.28
2018-12-02T10:47:41.947Z,78.38
2018-12-02T10:48:41.934Z,78.28
2018-12-02T10:49:41.938Z,78.28
2018-12-02T10:50:41.924Z,78.49
2018-12-02T10:51:41.888Z,78.49
2018-12-02T10:52:41.886Z,78.28
2018-12-02T10:53:41.870Z,78.28
2018-12-02T10:54:41.862Z,77.87
2018-12-02T10:55:41.873Z,78.28
2018-12-02T10:56:41.842Z,77.97
2018-12-02T10:57:41.827Z,78.08
2018-12-02T10:58:41.824Z,78.34
2018-12-02T10:59:41.804Z,77.83
2018-12-02T11:00:41.843Z,78.28
2018-12-02T11:01:41.812Z,78.04
2018-12-02T11:02:41.779Z,78.18
2018-12-02T11:03:41.761Z,78.08
2018-12-02T11:04:41.739Z,77.76
2018-12-02T11:05:41.732Z,77.94
2018-12-02T11:06:41.739Z,78.14
2018-12-02T11:07:41.719Z,77.94
2018-12-02T11:08:41.706Z,77.83
2018-12-02T11:09:41.679Z,77.73
2018-12-02T11:10:41.674Z,77.52
2018-12-02T11:11:41.684Z,77.94
2018-12-02T11:12:41.675Z,78.04
2018-12-02T11:13:41.648Z,77.83
2018-12-02T11:14:41.633Z,77.42
2018-12-02T11:15:41.624Z,77.52
2018-12-02T11:16:41.624Z,77.42
2018-12-02T11:17:41.594Z,77.62
2018-12-02T11:18:41.598Z,77.52
2018-12-02T11:19:41.578Z,77.73
2018-12-02T11:20:41.598Z,77.28
2018-12-02T11:21:41.577Z,77.08
2018-12-02T11:22:41.538Z,77.08
2018-12-02T11:23:41.531Z,76.87
2018-12-02T11:24:41.530Z,77.28
2018-12-02T11:25:41.511Z,76.76
2018-12-02T11:26:41.524Z,77.38
2018-12-02T11:27:41.493Z,77.38
2018-12-02T11:28:41.489Z,77.48
2018-12-02T11:29:41.476Z,77.69
2018-12-02T11:30:41.448Z,77.38
2018-12-02T11:31:41.450Z,77.48
2018-12-02T11:32:41.440Z,77.69
2018-12-02T11:33:41.432Z,77.90
2018-12-02T11:34:41.402Z,78.21
2018-12-02T11:35:41.402Z,78.41
2018-12-02T11:37:02.404Z,78.62
2018-12-02T11:37:41.387Z,79.24
2018-12-02T11:38:41.361Z,79.14
2018-12-02T11:39:41.363Z,79.24
2018-12-02T11:40:41.351Z,79.65
2018-12-02T11:41:41.359Z,79.55
2018-12-02T11:42:41.332Z,79.55
2018-12-02T11:43:41.318Z,79.55
2018-12-02T11:44:41.311Z,79.65
2018-12-02T11:45:41.281Z,79.34
2018-12-02T11:46:41.281Z,80.06
2018-12-02T11:47:41.282Z,79.96
2018-12-02T11:48:41.272Z,79.34
2018-12-02T11:49:41.254Z,79.55
2018-12-02T11:50:41.237Z,79.65
2018-12-02T11:51:41.221Z,79.75
2018-12-02T11:52:41.232Z,79.79
2018-12-02T11:53:41.202Z,79.96
2018-12-02T11:54:41.201Z,79.55
2018-12-02T11:55:41.182Z,79.55
2018-12-02T11:56:41.169Z,79.65
2018-12-02T11:57:41.164Z,79.44
2018-12-02T11:58:41.144Z,79.03
2018-12-02T11:59:41.143Z,79.34
2018-12-02T12:00:41.132Z,79.34
2018-12-02T12:01:41.114Z,79.44
2018-12-02T12:02:41.129Z,79.38
2018-12-02T12:03:41.089Z,79.55
2018-12-02T12:04:41.079Z,79.69
2018-12-02T12:05:41.070Z,79.65
2018-12-02T12:06:41.096Z,79.75
2018-12-02T12:07:41.066Z,79.48
2018-12-02T12:08:41.050Z,79.75
2018-12-02T12:09:41.110Z,79.55
2018-12-02T12:10:41.015Z,80.16
2018-12-02T12:11:40.999Z,79.65
2018-12-02T12:12:41.003Z,79.44
2018-12-02T12:13:40.977Z,79.65
2018-12-02T12:14:40.974Z,79.55
2018-12-02T12:15:40.953Z,79.75
2018-12-02T12:16:40.956Z,79.96
2018-12-02T12:17:40.951Z,79.65
2018-12-02T12:18:40.933Z,79.55
2018-12-02T12:19:41.998Z,79.75
2018-12-02T12:20:40.901Z,79.75
2018-12-02T12:21:40.883Z,80.16
2018-12-02T12:22:40.900Z,79.55
2018-12-02T12:23:40.866Z,80.37
2018-12-02T12:24:40.859Z,80.00
2018-12-02T12:25:40.842Z,80.37
2018-12-02T12:26:40.841Z,80.27
2018-12-02T12:27:40.850Z,80.16
2018-12-02T12:28:40.805Z,80.47
2018-12-02T12:29:40.804Z,80.30
2018-12-02T12:30:40.786Z,79.86
2018-12-02T12:31:40.787Z,80.37
2018-12-02T12:32:40.771Z,80.47
2018-12-02T12:33:40.757Z,80.58
2018-12-02T12:34:40.755Z,80.58
2018-12-02T12:35:40.730Z,80.68
2018-12-02T12:36:40.726Z,80.58
2018-12-02T12:37:40.742Z,81.30
2018-12-02T12:38:40.702Z,80.99
2018-12-02T12:39:40.734Z,81.09
2018-12-02T12:40:40.690Z,81.30
2018-12-02T12:41:40.673Z,81.09
2018-12-02T12:42:40.660Z,81.09
2018-12-02T12:43:40.690Z,81.30
2018-12-02T12:44:40.637Z,81.71
2018-12-02T12:45:40.633Z,82.02
2018-12-02T12:46:40.610Z,81.81
2018-12-02T12:47:40.604Z,82.02
2018-12-02T12:48:40.615Z,81.61
2018-12-02T12:49:40.584Z,82.02
2018-12-02T12:50:40.566Z,82.43
2018-12-02T12:51:40.566Z,82.43
2018-12-02T12:52:40.545Z,82.33